Time;durP1;ratioP1;P1;durP2;ratioP2;P2;SDS_P1;SDS_P2;PMS_P1;PMS_P2;Temp;Humidity;BMP_temperature;BMP_pressure;BME280_temperature;BME280_humidity;BME280_pressure;Samples;Min_cycle;Max_cycle;Signal;HPM_P1;HPM_P2
2023/10/09 00:03:06;;;;;;;10.63;6.03;;;;;;;;;;5072322;28;20390;-73
2023/10/09 00:08:18;;;;;;;13.60;6.22;;;;;;;;;;5068873;28;20039;-73
2023/10/09 00:10:54;;;;;;;13.85;7.43;;;;;;;;;;5060822;28;20334;-73
2023/10/09 00:13:30;;;;;;;14.82;6.65;;;;;;;;;;5070000;28;20029;-73
2023/10/09 00:16:13;;;;;;;13.43;6.63;;;;;;;;;;5066565;28;20466;-72
2023/10/09 00:18:39;;;;;;;13.25;6.70;;;;;;;;;;5066328;28;20556;-72
2023/10/09 00:21:12;;;;;;;18.27;7.38;;;;;;;;;;5082952;28;20466;-73
2023/10/09 00:23:40;;;;;;;22.65;8.35;;;;;;;;;;5062352;28;20036;-72
2023/10/09 00:26:19;;;;;;;22.83;8.63;;;;;;;;;;5071738;28;20035;-72
2023/10/09 00:28:47;;;;;;;20.05;8.55;;;;;;;;;;5071801;28;20485;-73
2023/10/09 00:31:16;;;;;;;21.70;9.25;;;;;;;;;;5064676;28;20481;-72
2023/10/09 00:33:45;;;;;;;18.65;9.05;;;;;;;;;;5066342;28;20040;-72
2023/10/09 00:36:18;;;;;;;26.25;9.38;;;;;;;;;;5071724;28;20039;-72
2023/10/09 00:38:46;;;;;;;20.27;9.65;;;;;;;;;;5072113;28;20386;-73
2023/10/09 00:41:19;;;;;;;19.23;9.55;;;;;;;;;;5073141;28;20029;-73
2023/10/09 00:43:45;;;;;;;19.17;10.27;;;;;;;;;;5071709;28;20474;-73
2023/10/09 00:48:50;;;;;;;19.13;10.15;;;;;;;;;;5070874;28;20037;-72
2023/10/09 00:51:18;;;;;;;23.80;11.32;;;;;;;;;;5068999;28;20036;-72
2023/10/09 00:53:51;;;;;;;24.30;11.43;;;;;;;;;;5064775;28;20029;-72
2023/10/09 00:59:10;;;;;;;36.55;12.73;;;;;;;;;;5072398;28;20478;-72
2023/10/09 01:01:40;;;;;;;24.38;11.45;;;;;;;;;;5072747;28;20466;-72
2023/10/09 01:04:14;;;;;;;24.67;12.85;;;;;;;;;;5071531;28;20025;-72
2023/10/09 01:06:45;;;;;;;23.80;12.75;;;;;;;;;;5065020;28;20036;-72
2023/10/09 01:09:15;;;;;;;31.23;13.48;;;;;;;;;;5087895;28;20397;-73
2023/10/09 01:11:49;;;;;;;27.45;13.52;;;;;;;;;;5070770;28;20471;-73
2023/10/09 01:14:15;;;;;;;28.88;14.55;;;;;;;;;;5076992;28;20032;-72
2023/10/09 01:16:42;;;;;;;30.50;13.30;;;;;;;;;;5061136;28;20091;-72
2023/10/09 01:19:23;;;;;;;34.95;15.70;;;;;;;;;;5065793;28;20382;-72
2023/10/09 01:21:53;;;;;;;33.20;14.73;;;;;;;;;;5065587;28;20043;-72
2023/10/09 01:24:19;;;;;;;30.00;15.70;;;;;;;;;;5060998;28;20170;-72
2023/10/09 01:26:46;;;;;;;32.85;15.57;;;;;;;;;;5065754;28;20387;-72
2023/10/09 01:29:16;;;;;;;30.25;15.95;;;;;;;;;;5073005;28;20044;-72
2023/10/09 01:31:52;;;;;;;42.47;17.40;;;;;;;;;;5069120;28;20128;-72
2023/10/09 01:37:05;;;;;;;36.10;17.17;;;;;;;;;;5068304;28;20462;-72
2023/10/09 01:39:39;;;;;;;29.52;16.90;;;;;;;;;;5070708;28;20492;-73
2023/10/09 01:42:06;;;;;;;33.13;18.25;;;;;;;;;;5069789;28;20024;-73
2023/10/09 01:44:35;;;;;;;32.45;18.02;;;;;;;;;;5071989;28;20032;-71
2023/10/09 01:47:07;;;;;;;39.30;19.00;;;;;;;;;;5066371;28;20033;-72
2023/10/09 01:49:35;;;;;;;35.63;19.73;;;;;;;;;;5066288;28;20025;-72
2023/10/09 01:52:08;;;;;;;45.10;20.60;;;;;;;;;;5070336;28;20508;-72
2023/10/09 01:54:36;;;;;;;42.30;20.30;;;;;;;;;;5071866;28;20062;-72
2023/10/09 01:57:09;;;;;;;60.42;34.85;;;;;;;;;;5068911;28;20398;-73
2023/10/09 01:59:38;;;;;;;104.30;62.92;;;;;;;;;;5066117;28;20384;-72
2023/10/09 02:02:25;;;;;;;67.13;37.67;;;;;;;;;;5067057;28;20043;-71
2023/10/09 02:05:05;;;;;;;39.30;20.83;;;;;;;;;;5062394;28;20032;-72
2023/10/09 02:07:40;;;;;;;37.92;21.67;;;;;;;;;;5058910;28;20382;-73
2023/10/09 02:10:21;;;;;;;38.60;21.27;;;;;;;;;;5071500;28;20029;-72
2023/10/09 02:12:47;;;;;;;45.00;21.75;;;;;;;;;;5069494;28;20032;-73
2023/10/09 02:15:15;;;;;;;41.58;22.10;;;;;;;;;;5069003;28;20655;-72
2023/10/09 02:17:51;;;;;;;39.28;21.38;;;;;;;;;;5068627;28;20052;-73
2023/10/09 02:20:19;;;;;;;45.88;23.15;;;;;;;;;;5065461;28;20036;-75
2023/10/09 02:22:45;;;;;;;73.70;38.10;;;;;;;;;;5065946;28;20081;-76
2023/10/09 02:25:12;;;;;;;64.03;34.25;;;;;;;;;;5068131;28;20033;-76
2023/10/09 02:27:53;;;;;;;43.28;23.98;;;;;;;;;;5063124;28;20112;-72
2023/10/09 02:30:29;;;;;;;46.00;24.85;;;;;;;;;;5069770;28;20385;-72
2023/10/09 02:33:06;;;;;;;44.78;25.08;;;;;;;;;;5061681;28;20375;-72
2023/10/09 02:35:39;;;;;;;45.20;23.83;;;;;;;;;;5069903;28;20032;-72
2023/10/09 02:38:07;;;;;;;51.90;24.17;;;;;;;;;;5069452;28;20028;-73
2023/10/09 02:40:40;;;;;;;48.75;24.05;;;;;;;;;;5069872;28;20012;-73
2023/10/09 02:43:10;;;;;;;50.70;23.83;;;;;;;;;;5066885;28;20033;-73
2023/10/09 02:45:46;;;;;;;51.50;26.55;;;;;;;;;;5068108;28;20105;-73
2023/10/09 02:48:13;;;;;;;48.35;24.73;;;;;;;;;;5065922;28;20017;-73
2023/10/09 02:50:44;;;;;;;48.35;25.85;;;;;;;;;;5069577;28;20032;-73
2023/10/09 02:53:18;;;;;;;123.70;74.32;;;;;;;;;;5070908;28;20123;-75
2023/10/09 02:55:53;;;;;;;69.15;35.10;;;;;;;;;;5069539;28;20025;-75
2023/10/09 02:58:23;;;;;;;70.00;41.10;;;;;;;;;;5069830;28;20048;-75
2023/10/09 03:01:09;;;;;;;59.88;28.45;;;;;;;;;;5069824;28;20139;-72
2023/10/09 03:03:35;;;;;;;47.33;27.05;;;;;;;;;;5061791;28;20020;-72
2023/10/09 03:06:03;;;;;;;48.95;24.77;;;;;;;;;;5064069;28;20032;-72
2023/10/09 03:08:29;;;;;;;57.22;28.10;;;;;;;;;;5068446;28;20024;-72
2023/10/09 03:11:00;;;;;;;52.80;28.00;;;;;;;;;;5069379;28;20052;-72
2023/10/09 03:13:26;;;;;;;50.63;27.33;;;;;;;;;;5070034;28;20033;-72
2023/10/09 03:15:52;;;;;;;53.88;28.23;;;;;;;;;;5067965;28;20036;-71
2023/10/09 03:18:18;;;;;;;52.38;28.38;;;;;;;;;;5066864;28;20060;-72
2023/10/09 03:20:46;;;;;;;52.67;28.20;;;;;;;;;;5056181;28;20032;-72
2023/10/09 03:23:14;;;;;;;55.17;27.33;;;;;;;;;;5069584;28;20531;-71
2023/10/09 03:25:40;;;;;;;55.72;28.27;;;;;;;;;;5068356;28;21210;-72
2023/10/09 03:28:06;;;;;;;69.20;31.23;;;;;;;;;;5083213;28;20429;-72
2023/10/09 03:30:34;;;;;;;54.70;29.02;;;;;;;;;;5067010;28;20410;-73
2023/10/09 03:33:02;;;;;;;56.03;27.42;;;;;;;;;;5062122;28;20060;-72
2023/10/09 03:35:28;;;;;;;47.80;27.02;;;;;;;;;;5070659;28;20029;-72
2023/10/09 03:38:02;;;;;;;57.58;28.83;;;;;;;;;;5072366;28;20033;-72
2023/10/09 03:40:28;;;;;;;53.45;26.75;;;;;;;;;;5072599;28;20478;-73
2023/10/09 03:42:54;;;;;;;52.42;27.55;;;;;;;;;;5064610;28;20039;-72
2023/10/09 03:45:27;;;;;;;59.97;27.73;;;;;;;;;;5056847;28;20033;-72
2023/10/09 03:48:15;;;;;;;48.70;25.83;;;;;;;;;;5072068;28;20036;-72
2023/10/09 03:50:43;;;;;;;52.80;25.75;;;;;;;;;;5069385;28;20071;-72
2023/10/09 03:53:12;;;;;;;54.67;24.75;;;;;;;;;;5071281;28;20040;-73
2023/10/09 03:55:39;;;;;;;46.63;23.92;;;;;;;;;;5073368;28;20028;-73
2023/10/09 03:58:06;;;;;;;41.20;22.20;;;;;;;;;;5072150;28;20378;-73
2023/10/09 04:00:40;;;;;;;42.55;22.92;;;;;;;;;;5070410;28;20044;-73
2023/10/09 04:03:07;;;;;;;35.85;20.67;;;;;;;;;;5071185;28;20334;-72
2023/10/09 04:05:33;;;;;;;39.67;20.77;;;;;;;;;;5069980;28;20064;-73
2023/10/09 04:08:02;;;;;;;39.40;22.42;;;;;;;;;;5061327;28;20133;-73
2023/10/09 04:10:44;;;;;;;39.40;19.17;;;;;;;;;;5071885;28;20393;-73
2023/10/09 04:13:17;;;;;;;31.92;18.65;;;;;;;;;;5063934;28;20029;-72
2023/10/09 04:15:43;;;;;;;35.33;18.20;;;;;;;;;;5064216;28;20040;-73
2023/10/09 04:18:16;;;;;;;32.25;16.70;;;;;;;;;;5065378;28;20120;-73
2023/10/09 04:23:59;;;;;;;33.65;15.43;;;;;;;;;;5064724;28;20055;-73
2023/10/09 04:26:24;;;;;;;28.10;14.75;;;;;;;;;;5070102;28;20044;-73
2023/10/09 04:28:52;;;;;;;32.88;14.13;;;;;;;;;;5073180;28;20036;-73
2023/10/09 04:31:19;;;;;;;28.70;14.05;;;;;;;;;;5070794;28;20033;-73
2023/10/09 04:34:21;;;;;;;23.40;12.98;;;;;;;;;;5070360;28;20064;-74
2023/10/09 04:36:46;;;;;;;29.77;12.73;;;;;;;;;;5058789;28;20021;-74
2023/10/09 04:44:19;;;;;;;25.42;11.48;;;;;;;;;;5073512;28;20040;-75
2023/10/09 04:47:18;;;;;;;22.65;11.18;;;;;;;;;;5078012;28;20525;-75
2023/10/09 04:49:49;;;;;;;28.90;12.18;;;;;;;;;;5067017;28;20033;-75
2023/10/09 04:57:38;;;;;;;26.27;10.43;;;;;;;;;;5056725;28;20041;-75
2023/10/09 05:00:22;;;;;;;25.60;12.10;;;;;;;;;;5068921;28;20432;-75
2023/10/09 05:02:54;;;;;;;26.58;10.98;;;;;;;;;;5069239;28;20037;-75
2023/10/09 05:08:18;;;;;;;19.10;10.05;;;;;;;;;;5062671;28;20071;-75
2023/10/09 05:11:05;;;;;;;19.52;10.40;;;;;;;;;;5071249;28;20028;-74
2023/10/09 05:16:29;;;;;;;26.10;10.05;;;;;;;;;;5071971;28;20102;-75
2023/10/09 05:18:59;;;;;;;22.80;10.23;;;;;;;;;;5067043;28;21671;-74
2023/10/09 05:32:03;;;;;;;31.40;10.80;;;;;;;;;;5070245;28;20130;-74
2023/10/09 05:37:25;;;;;;;17.83;8.35;;;;;;;;;;5069061;28;20033;-74
2023/10/09 05:44:55;;;;;;;18.30;8.70;;;;;;;;;;5066527;28;20513;-74
2023/10/09 05:46:07;;;;;;;24.73;8.88;;;;;;;;;;5068334;28;20036;-73
2023/10/09 05:48:48;;;;;;;26.88;9.23;;;;;;;;;;5068361;28;20170;-73
2023/10/09 05:51:12;;;;;;;27.20;10.05;;;;;;;;;;5059917;28;20075;-73
2023/10/09 06:07:13;;;;;;;24.63;9.68;;;;;;;;;;5065998;28;20047;-74
2023/10/09 06:09:52;;;;;;;24.48;9.77;;;;;;;;;;5070706;28;20512;-74
2023/10/09 06:12:33;;;;;;;23.17;9.85;;;;;;;;;;5056967;28;20040;-74
2023/10/09 06:15:19;;;;;;;22.40;8.40;;;;;;;;;;5070134;28;20406;-74
2023/10/09 06:17:50;;;;;;;26.38;9.93;;;;;;;;;;5064659;28;20548;-73
2023/10/09 06:23:15;;;;;;;28.13;9.50;;;;;;;;;;5069643;28;20513;-74
2023/10/09 06:25:50;;;;;;;26.65;9.48;;;;;;;;;;5069952;28;20032;-74
2023/10/09 06:28:18;;;;;;;21.08;8.65;;;;;;;;;;5070068;28;20035;-74
2023/10/09 06:30:47;;;;;;;28.30;9.48;;;;;;;;;;5068225;28;20017;-74
2023/10/09 06:33:19;;;;;;;20.38;8.30;;;;;;;;;;5070406;28;20053;-74
2023/10/09 06:35:55;;;;;;;22.60;8.38;;;;;;;;;;5072044;28;20036;-75
2023/10/09 06:38:22;;;;;;;32.45;8.48;;;;;;;;;;5065760;28;20441;-75
2023/10/09 06:45:54;;;;;;;22.67;8.55;;;;;;;;;;5068974;28;20028;-76
2023/10/09 06:51:07;;;;;;;25.63;8.65;;;;;;;;;;5062331;28;20043;-74
2023/10/09 06:59:04;;;;;;;22.40;9.07;;;;;;;;;;5068202;28;20486;-73
2023/10/09 07:01:42;;;;;;;23.50;8.75;;;;;;;;;;5069287;28;20035;-77
2023/10/09 07:06:56;;;;;;;21.75;8.45;;;;;;;;;;5070180;28;20070;-74
2023/10/09 07:09:23;;;;;;;23.60;8.85;;;;;;;;;;5068948;28;20032;-74
2023/10/09 07:16:57;;;;;;;29.08;9.35;;;;;;;;;;5075306;28;20039;-75
2023/10/09 07:24:58;;;;;;;17.00;8.32;;;;;;;;;;5069941;28;20059;-76
2023/10/09 07:27:43;;;;;;;30.17;10.05;;;;;;;;;;5074682;28;20430;-76
2023/10/09 07:33:16;;;;;;;24.27;8.65;;;;;;;;;;5067238;28;20099;-77
2023/10/09 07:38:10;;;;;;;25.92;9.77;;;;;;;;;;5073369;28;20039;-77
2023/10/09 07:40:55;;;;;;;29.13;9.73;;;;;;;;;;5071099;28;20025;-78
2023/10/09 07:48:56;;;;;;;31.52;8.63;;;;;;;;;;5069511;28;20040;-76
2023/10/09 07:51:31;;;;;;;24.52;8.38;;;;;;;;;;5082224;28;20090;-75
2023/10/09 07:54:06;;;;;;;23.90;8.68;;;;;;;;;;5065189;28;20036;-74
2023/10/09 07:56:38;;;;;;;22.83;9.45;;;;;;;;;;5072886;28;20029;-76
2023/10/09 07:59:10;;;;;;;28.67;9.07;;;;;;;;;;5074473;28;20413;-76
2023/10/09 08:01:36;;;;;;;23.48;8.80;;;;;;;;;;5074081;28;20039;-75
2023/10/09 08:04:10;;;;;;;21.20;8.07;;;;;;;;;;5067775;28;20043;-75
2023/10/09 08:06:44;;;;;;;23.27;8.52;;;;;;;;;;5073795;28;20119;-75
2023/10/09 08:14:42;;;;;;;32.97;8.52;;;;;;;;;;5069751;28;20051;-75
2023/10/09 08:17:17;;;;;;;22.40;7.72;;;;;;;;;;5073081;28;20036;-75
2023/10/09 08:20:11;;;;;;;28.02;8.88;;;;;;;;;;5072185;28;20383;-75
2023/10/09 08:22:43;;;;;;;25.73;8.75;;;;;;;;;;5073628;28;20043;-75
2023/10/09 08:25:26;;;;;;;29.23;8.45;;;;;;;;;;5066637;28;20048;-74
2023/10/09 08:27:55;;;;;;;;;;;;;;;;;;5074693;28;20024;-76
2023/10/09 08:33:00;;;;;;;25.83;8.85;;;;;;;;;;5072828;28;20150;-76
2023/10/09 08:35:30;;;;;;;30.88;11.95;;;;;;;;;;5068706;28;20154;-75
2023/10/09 08:37:59;;;;;;;35.38;10.18;;;;;;;;;;5073274;28;20040;-75
2023/10/09 08:40:33;;;;;;;26.08;9.80;;;;;;;;;;5073447;28;20046;-75
2023/10/09 08:43:08;;;;;;;21.90;8.63;;;;;;;;;;5070036;28;20025;-74
2023/10/09 08:45:34;;;;;;;30.08;8.43;;;;;;;;;;5073141;28;20020;-76
2023/10/09 08:48:04;;;;;;;25.52;8.48;;;;;;;;;;5071264;28;20027;-75
2023/10/09 08:50:30;;;;;;;21.13;8.05;;;;;;;;;;5071496;28;20119;-74
2023/10/09 08:52:57;;;;;;;25.77;8.32;;;;;;;;;;5072079;28;20463;-76
2023/10/09 08:55:23;;;;;;;26.05;8.18;;;;;;;;;;5071313;28;20043;-75
2023/10/09 08:57:52;;;;;;;28.83;8.40;;;;;;;;;;5073173;28;20107;-75
2023/10/09 09:00:23;;;;;;;28.35;8.30;;;;;;;;;;5072561;28;20494;-76
2023/10/09 09:02:52;;;;;;;27.70;8.38;;;;;;;;;;5070256;28;20058;-75
2023/10/09 09:05:20;;;;;;;28.17;8.35;;;;;;;;;;5071720;28;20036;-76
2023/10/09 09:07:46;;;;;;;23.88;7.68;;;;;;;;;;5068867;28;20029;-76
2023/10/09 09:10:21;;;;;;;29.95;8.32;;;;;;;;;;5071124;28;20051;-74
2023/10/09 09:12:53;;;;;;;23.58;8.45;;;;;;;;;;5071169;28;20036;-75
2023/10/09 09:15:20;;;;;;;26.67;8.15;;;;;;;;;;5071870;28;20024;-75
2023/10/09 09:17:49;;;;;;;27.48;8.65;;;;;;;;;;5072153;28;20047;-75
2023/10/09 09:20:34;;;;;;;25.80;8.60;;;;;;;;;;5069513;28;20031;-77
2023/10/09 09:23:04;;;;;;;25.98;8.60;;;;;;;;;;5071510;28;20037;-75
2023/10/09 09:25:44;;;;;;;22.13;8.77;;;;;;;;;;5071357;28;20028;-75
2023/10/09 09:28:12;;;;;;;28.50;7.88;;;;;;;;;;5071903;28;20503;-74
2023/10/09 09:30:40;;;;;;;26.92;9.43;;;;;;;;;;5067626;28;20409;-78
2023/10/09 09:36:07;;;;;;;20.95;8.38;;;;;;;;;;5070508;28;20504;-79
2023/10/09 09:41:14;;;;;;;24.95;8.07;;;;;;;;;;5071147;28;20508;-75
2023/10/09 09:43:44;;;;;;;25.00;7.88;;;;;;;;;;5071597;28;20442;-74
2023/10/09 09:46:11;;;;;;;25.88;8.80;;;;;;;;;;5063557;28;20025;-75
2023/10/09 09:48:44;;;;;;;23.48;7.40;;;;;;;;;;5067636;28;20050;-76
2023/10/09 09:51:10;;;;;;;20.65;8.88;;;;;;;;;;5065190;28;20063;-74
2023/10/09 09:53:36;;;;;;;28.40;8.00;;;;;;;;;;5063439;28;20028;-74
2023/10/09 09:56:03;;;;;;;26.25;7.78;;;;;;;;;;5070876;28;20036;-74
2023/10/09 09:58:41;;;;;;;20.25;6.85;;;;;;;;;;5068825;28;20113;-74
2023/10/09 10:01:24;;;;;;;19.20;7.25;;;;;;;;;;5063975;28;20024;-75
2023/10/09 10:03:51;;;;;;;20.52;8.20;;;;;;;;;;5063049;28;20070;-73
2023/10/09 10:06:21;;;;;;;17.88;7.03;;;;;;;;;;5064869;28;20053;-75
2023/10/09 10:08:51;;;;;;;25.95;7.18;;;;;;;;;;5069712;28;20036;-74
2023/10/09 10:11:40;;;;;;;27.27;7.50;;;;;;;;;;5067653;28;20025;-74
2023/10/09 10:14:10;;;;;;;19.67;6.45;;;;;;;;;;5066445;28;20028;-74
2023/10/09 10:16:56;;;;;;;23.85;8.00;;;;;;;;;;5065180;28;20420;-74
2023/10/09 10:19:23;;;;;;;16.70;6.90;;;;;;;;;;5062135;28;20063;-74
2023/10/09 10:21:49;;;;;;;23.52;6.93;;;;;;;;;;5070492;28;20448;-73
2023/10/09 10:24:30;;;;;;;23.98;9.50;;;;;;;;;;5071515;28;20067;-74
2023/10/09 10:27:44;;;;;;;20.05;7.45;;;;;;;;;;5068638;28;20031;-74
2023/10/09 10:30:14;;;;;;;26.55;6.65;;;;;;;;;;5064403;28;20028;-75
2023/10/09 10:33:09;;;;;;;26.60;7.28;;;;;;;;;;5064951;28;20050;-74
2023/10/09 10:35:45;;;;;;;22.23;7.40;;;;;;;;;;5069384;28;20032;-76
2023/10/09 10:38:45;;;;;;;20.75;7.35;;;;;;;;;;5067560;28;20028;-77
2023/10/09 10:41:19;;;;;;;24.70;6.90;;;;;;;;;;5070478;28;20129;-77
2023/10/09 10:48:59;;;;;;;19.67;6.55;;;;;;;;;;5064110;28;20367;-76
2023/10/09 10:51:37;;;;;;;26.15;6.93;;;;;;;;;;5069897;28;20374;-75
2023/10/09 10:56:51;;;;;;;28.15;7.78;;;;;;;;;;5083174;28;20101;-74
2023/10/09 10:59:36;;;;;;;25.63;6.93;;;;;;;;;;5068939;28;20099;-74
2023/10/09 11:12:37;;;;;;;19.95;6.45;;;;;;;;;;5070834;28;20033;-75
2023/10/09 11:15:47;;;;;;;25.40;6.78;;;;;;;;;;5069647;28;20033;-74
2023/10/09 11:18:16;;;;;;;17.58;5.75;;;;;;;;;;5063397;28;20123;-75
2023/10/09 11:20:56;;;;;;;17.83;6.00;;;;;;;;;;5054434;28;20028;-75
2023/10/09 11:23:35;;;;;;;14.77;5.25;;;;;;;;;;5091034;28;20040;-73
2023/10/09 11:26:54;;;;;;;22.83;6.18;;;;;;;;;;5068572;28;20020;-73
2023/10/09 11:32:09;;;;;;;19.75;6.03;;;17.90;99.90;;;;;;5064210;28;20109;-73
2023/10/09 11:34:36;;;;;;;19.52;4.82;;;;;;;;;;5069012;28;20056;-76
2023/10/09 11:37:15;;;;;;;16.60;4.97;;;;;;;;;;5066218;28;20035;-77
2023/10/09 11:39:51;;;;;;;21.45;5.60;;;;;;;;;;5070108;28;20024;-74
2023/10/09 11:42:36;;;;;;;15.82;4.60;;;;;;;;;;5066416;28;20040;-75
2023/10/09 11:45:19;;;;;;;20.48;6.00;;;;;;;;;;5069875;28;20025;-74
2023/10/09 11:47:54;;;;;;;18.55;5.82;;;;;;;;;;5068390;28;20038;-74
2023/10/09 11:50:30;;;;;;;17.77;5.10;;;;;;;;;;5067026;28;20054;-73
2023/10/09 11:55:45;;;;;;;19.80;5.13;;;;;;;;;;5067904;28;20043;-74
2023/10/09 11:58:11;;;;;;;19.20;4.82;;;;;;;;;;5067322;28;20506;-72
2023/10/09 12:00:47;;;;;;;20.90;6.45;;;;;;;;;;5067167;28;20039;-75
2023/10/09 12:03:14;;;;;;;39.83;20.35;;;;;;;;;;5072496;28;20028;-76
2023/10/09 12:05:44;;;;;;;16.10;4.35;;;;;;;;;;5073333;28;20466;-74
2023/10/09 12:08:10;;;;;;;23.70;4.60;;;;;;;;;;5072574;28;20024;-74
2023/10/09 12:10:40;;;;;;;17.02;4.43;;;;;;;;;;5071972;28;20539;-75
2023/10/09 12:13:07;;;;;;;11.48;4.50;;;;;;;;;;5073411;28;20082;-75
2023/10/09 12:15:37;;;;;;;16.05;3.90;;;;;;;;;;5070291;28;20420;-75
2023/10/09 12:18:08;;;;;;;16.83;4.97;;;;;;;;;;5064764;28;20098;-75
2023/10/09 12:20:35;;;;;;;20.45;4.65;;;;;;;;;;5072892;28;20025;-75
2023/10/09 12:23:04;;;;;;;14.80;3.33;;;;;;;;;;5073655;28;20084;-77
2023/10/09 12:25:31;;;;;;;18.17;4.70;;;;;;;;;;5072035;28;20485;-76
2023/10/09 12:28:02;;;;;;;10.38;3.67;;;;;;;;;;5067760;28;20107;-75
2023/10/09 12:30:37;;;;;;;15.93;3.95;;;;;;;;;;5072575;28;20147;-74
2023/10/09 12:33:07;;;;;;;13.93;3.40;;;;;;;;;;5067013;28;20133;-76
2023/10/09 12:35:37;;;;;;;8.23;2.40;;;;;;;;;;5068031;28;20024;-75
2023/10/09 12:38:08;;;;;;;16.73;3.15;;;;;;;;;;5060870;28;20107;-74
2023/10/09 12:40:34;;;;;;;11.57;3.28;;;;;;;;;;5067680;28;20020;-77
2023/10/09 12:43:00;;;;;;;10.50;3.17;;;;;;;;;;5070905;28;20401;-77
2023/10/09 12:45:27;;;;;;;16.45;3.00;;;;;;;;;;5071640;28;20038;-77
2023/10/09 12:48:03;;;;;;;12.48;3.47;;;;;;;;;;5070767;28;20458;-76
2023/10/09 12:50:34;;;;;;;9.25;2.80;;;;;;;;;;5066721;28;20025;-76
2023/10/09 12:53:06;;;;;;;16.63;3.33;;;;;;;;;;5069812;28;20036;-76
2023/10/09 12:55:37;;;;;;;10.50;3.05;;;;;;;;;;5071403;28;20024;-77
2023/10/09 12:58:07;;;;;;;14.93;3.67;;;;;;;;;;5070999;28;20033;-76
2023/10/09 13:00:48;;;;;;;12.30;4.10;;;;;;;;;;5071599;28;20020;-78
2023/10/09 13:03:18;;;;;;;16.00;4.70;;;;;;;;;;5084950;28;20059;-81
2023/10/09 13:05:51;;;;;;;15.52;3.47;;;;;;;;;;5069511;28;20025;-77
2023/10/09 13:08:21;;;;;;;14.50;3.40;;;;;;;;;;5068918;28;20059;-74
2023/10/09 13:10:47;;;;;;;18.75;3.97;;;;;;;;;;5069667;28;20024;-75
2023/10/09 13:13:13;;;;;;;24.63;4.25;;;;;;;;;;5070772;28;20032;-74
2023/10/09 13:15:42;;;;;;;12.75;4.22;;;;;;;;;;5070466;28;20085;-72
2023/10/09 13:18:08;;;;;;;11.85;3.47;;;;;;;;;;5068318;28;20497;-73
2023/10/09 13:20:36;;;;;;;13.25;3.40;;;;;;;;;;5071382;28;20036;-72
2023/10/09 13:23:02;;;;;;;11.65;4.10;;;;;;;;;;5063255;28;20024;-72
2023/10/09 13:25:39;;;;;;;10.20;4.00;;;;;;;;;;5069914;28;20355;-72
2023/10/09 13:28:05;;;;;;;17.98;3.55;;;;;;;;;;5070441;28;20024;-73
2023/10/09 13:30:39;;;;;;;14.80;3.20;;;;;;;;;;5064869;28;20036;-73
2023/10/09 13:33:05;;;;;;;14.20;3.17;;;;;;;;;;5069345;28;20032;-75
2023/10/09 13:35:37;;;;;;;10.10;3.00;;;;;;;;;;5071416;28;20478;-75
2023/10/09 13:38:09;;;;;;;15.63;4.07;;;;;;;;;;5068999;28;20504;-74
2023/10/09 13:40:37;;;;;;;10.45;2.90;;;;;;;;;;5071110;28;20041;-74
2023/10/09 13:43:03;;;;;;;17.27;3.00;;;;;;;;;;5069247;28;20039;-74
2023/10/09 13:45:30;;;;;;;25.15;7.90;;;;;;;;;;5067667;28;20066;-74
2023/10/09 13:48:02;;;;;;;10.43;2.70;;;;;;;;;;5072975;28;20111;-75
2023/10/09 13:50:32;;;;;;;10.63;3.25;;;;;;;;;;5069549;28;20037;-74
2023/10/09 13:52:58;;;;;;;14.68;3.10;;;;;;;;;;5064584;28;20044;-75
2023/10/09 13:55:31;;;;;;;16.13;3.95;;;;;;;;;;5069601;28;20154;-75
2023/10/09 13:57:57;;;;;;;12.13;3.25;;;;;;;;;;5071367;28;20111;-75
2023/10/09 14:00:33;;;;;;;15.13;3.72;;;;;;;;;;5068404;28;20037;-75
2023/10/09 14:03:13;;;;;;;16.77;2.72;;;;;;;;;;5065028;28;20118;-75
2023/10/09 14:05:51;;;;;;;14.48;2.97;;;;;;;;;;5067866;28;20110;-75
2023/10/09 14:08:18;;;;;;;12.27;3.15;;;;;;;;;;5069803;28;20066;-74
2023/10/09 14:10:48;;;;;;;14.32;2.58;;;;;;;;;;5069107;28;20029;-74
2023/10/09 14:13:14;;;;;;;10.95;2.90;;;;;;;;;;5068860;28;20074;-75
2023/10/09 14:15:42;;;;;;;7.68;2.33;;;;;;;;;;5068179;28;20036;-74
2023/10/09 14:18:11;;;;;;;15.98;2.80;;;;;;;;;;5061152;28;20383;-74
2023/10/09 14:20:38;;;;;;;11.88;2.45;;;;;;;;;;5070488;28;20482;-74
2023/10/09 14:23:07;;;;;;;7.47;2.45;;;;;;;;;;5065633;28;20051;-75
2023/10/09 14:25:39;;;;;;;10.07;2.45;;;;;;;;;;5054447;28;20167;-75
2023/10/09 14:28:08;;;;;;;;;;;;;;;;;;5066515;28;20036;-76
2023/10/09 14:30:41;;;;;;;9.32;3.10;;;;;;;;;;5071686;28;19908;-77
2023/10/09 14:33:12;;;;;;;11.82;2.85;;;;;;;;;;5069467;28;20032;-75
2023/10/09 14:35:41;;;;;;;10.13;2.45;;;;;;;;;;5070047;28;20504;-75
2023/10/09 14:38:15;;;;;;;7.82;2.60;;;;;;;;;;5071838;28;20020;-75
2023/10/09 14:40:42;;;;;;;11.68;3.05;;;;;;;;;;5051419;28;20386;-75
2023/10/09 14:43:16;;;;;;;6.15;2.13;;;;;;;;;;5061288;28;20037;-75
2023/10/09 14:45:42;;;;;;;7.43;1.83;;;;;;;;;;5069637;28;20036;-75
2023/10/09 14:48:11;;;;;;;6.10;2.05;;;;;;;;;;5070904;28;20125;-76
2023/10/09 14:50:38;;;;;;;9.27;2.67;;;;;;;;;;5069151;28;20462;-75
2023/10/09 14:53:04;;;;;;;4.43;1.50;;;;;;;;;;5070906;28;20478;-75
2023/10/09 14:55:31;;;;;;;6.03;2.00;;;;;;;;;;5071178;28;20103;-76
2023/10/09 14:57:58;;;;;;;11.90;2.65;;;;;;;;;;5070996;28;20112;-75
2023/10/09 15:00:26;;;;;;;8.30;2.97;;;;;;;;;;5067823;28;20540;-76
2023/10/09 15:02:52;;;;;;;6.68;1.75;;;;;;;;;;5067880;28;20063;-75
2023/10/09 15:05:18;;;;;;;6.18;1.85;;;;;;;;;;5068222;28;20017;-76
2023/10/09 15:07:45;;;;;;;7.22;1.85;;;;;;;;;;5071329;28;20466;-76
2023/10/09 15:10:15;;;;;;;9.43;2.53;;;;;;;;;;5084059;28;20027;-75
2023/10/09 15:12:42;;;;;;;10.30;2.20;;;;;;;;;;5064722;28;20086;-75
2023/10/09 15:15:15;;;;;;;8.02;2.00;;;;;;;;;;5068988;28;20561;-76
2023/10/09 15:17:43;;;;;;;17.92;2.50;;;;;;;;;;5067333;28;20370;-74
2023/10/09 15:20:15;;;;;;;9.30;2.25;;;;;;;;;;5067179;28;20080;-73
2023/10/09 15:22:42;;;;;;;7.85;1.90;;;;;;;;;;5062916;28;20037;-74
2023/10/09 15:25:08;;;;;;;8.05;2.30;;;;;;;;;;5068055;28;20029;-73
2023/10/09 15:27:34;;;;;;;9.63;2.92;;;;;;;;;;5068502;28;20082;-75
2023/10/09 15:30:00;;;;;;;8.65;2.53;;;;;;;;;;5067695;28;20040;-74
2023/10/09 15:32:26;;;;;;;8.13;2.58;;;;;;;;;;5068641;28;20036;-75
2023/10/09 15:34:56;;;;;;;7.65;2.90;;;;;;;;;;5073103;28;20514;-75
2023/10/09 15:37:22;;;;;;;12.63;2.40;;;;;;;;;;5083061;28;20025;-74
2023/10/09 15:39:49;;;;;;;8.48;2.40;;;;;;;;;;5073689;28;20039;-75
2023/10/09 15:42:16;;;;;;;11.10;2.08;;;;;;;;;;5057172;28;20041;-74
2023/10/09 15:44:47;;;;;;;7.40;2.25;;;;;;;;;;5071861;28;20486;-74
2023/10/09 15:47:15;;;;;;;9.63;2.75;;;;;;;;;;5074103;28;20044;-74
2023/10/09 15:49:43;;;;;;;27.23;11.60;;;;;;;;;;5072151;28;20706;-75
2023/10/09 15:52:13;;;;;;;6.88;2.53;;;;;;;;;;5068371;28;20178;-75
2023/10/09 15:54:40;;;;;;;8.32;4.35;;;;;;;;;;5071261;28;20516;-76
2023/10/09 15:57:06;;;;;;;4.05;1.40;;;;;;;;;;5069251;28;20574;-75
2023/10/09 15:59:32;;;;;;;4.68;1.25;;;;;;;;;;5071680;28;20083;-73
2023/10/09 16:01:59;;;;;;;7.95;1.77;;;;;;;;;;5069498;28;20124;-74
2023/10/09 16:04:25;;;;;;;6.70;2.25;;;;;;;;;;5073546;28;20116;-76
2023/10/09 16:06:52;;;;;;;4.97;1.27;;;;;;;;;;5063399;28;20529;-76
2023/10/09 16:09:21;;;;;;;6.53;1.90;;;;;;;;;;5064790;28;24225;-76
2023/10/09 16:11:47;;;;;;;5.80;1.77;;;;;;;;;;5065030;28;20768;-77
2023/10/09 16:14:15;;;;;;;8.38;2.17;;;;;;;;;;5073868;28;20050;-76
2023/10/09 16:16:41;;;;;;;5.32;1.70;;;;;;;;;;5070975;28;20029;-75
2023/10/09 16:19:10;;;;;;;8.82;1.92;;;;;;;;;;5062486;28;20043;-75
2023/10/09 16:21:37;;;;;;;7.50;2.42;;;;;;;;;;5073052;28;20492;-75
2023/10/09 16:24:06;;;;;;;4.30;1.65;;;;;;;;;;5074509;28;20060;-75
2023/10/09 16:26:39;;;;;;;4.85;1.70;;;;;;;;;;5064287;28;20074;-75
2023/10/09 16:29:07;;;;;;;3.75;2.50;;;;;;;;;;5066938;28;20032;-75
2023/10/09 16:31:35;;;;;;;6.07;3.25;;;;;;;;;;5068916;28;20504;-77
2023/10/09 16:34:02;;;;;;;5.68;2.47;;;;;;;;;;5071154;28;20049;-78
2023/10/09 16:36:28;;;;;;;13.18;2.80;;;;;;;;;;5072169;28;20097;-74
2023/10/09 16:38:55;;;;;;;10.38;3.92;;;;;;;;;;5070832;28;20115;-74
2023/10/09 16:41:25;;;;;;;7.32;2.70;;;;;;;;;;5070380;28;20025;-74
2023/10/09 16:43:52;;;;;;;5.85;2.20;;;;;;;;;;5069446;28;20100;-75
2023/10/09 16:46:21;;;;;;;6.07;2.60;;;;;;;;;;5070955;28;20027;-75
2023/10/09 16:48:51;;;;;;;10.32;2.00;;;;;;;;;;5070087;28;20035;-75
2023/10/09 16:51:21;;;;;;;7.15;2.25;;;;;;;;;;5072075;28;20071;-74
2023/10/09 16:53:51;;;;;;;5.07;2.00;;;;;;;;;;5071774;28;20033;-74
2023/10/09 16:56:19;;;;;;;7.10;2.47;;;;;;;;;;5069152;28;20025;-74
2023/10/09 16:58:46;;;;;;;5.80;1.75;;;;;;;;;;5070764;28;20048;-74
2023/10/09 17:01:13;;;;;;;10.48;2.30;;;;;;;;;;5064261;28;20033;-73
2023/10/09 17:03:42;;;;;;;11.68;2.30;;;;;;;;;;5064499;28;20033;-73
2023/10/09 17:06:09;;;;;;;7.28;1.88;;;;;;;;;;5071555;28;20173;-73
2023/10/09 17:08:42;;;;;;;10.50;2.45;;;;;;;;;;5070019;28;20080;-74
2023/10/09 17:11:11;;;;;;;7.88;2.58;;;;;;;;;;5069750;28;20047;-73
2023/10/09 17:13:37;;;;;;;8.13;2.88;;;;;;;;;;5069894;28;20304;-73